sensor_id;sensor_type;location;lat;lon;timestamp;P1;durP1;ratioP1;P2;durP2;ratioP2
74791;SDS011;63319;46.046;17.802;2024-03-23T00:54:36;35.97;;;17.67;;
74791;SDS011;63319;46.046;17.802;2024-03-23T00:57:38;31.02;;;17.73;;
74791;SDS011;63319;46.046;17.802;2024-03-23T01:00:40;32.30;;;17.20;;
74791;SDS011;63319;46.046;17.802;2024-03-23T01:03:42;32.78;;;16.75;;
74791;SDS011;63319;46.046;17.802;2024-03-23T01:06:44;25.58;;;16.15;;
74791;SDS011;63319;46.046;17.802;2024-03-23T01:09:45;30.80;;;17.27;;
74791;SDS011;63319;46.046;17.802;2024-03-23T01:12:47;31.92;;;17.60;;
74791;SDS011;63319;46.046;17.802;2024-03-23T01:15:49;32.45;;;17.48;;
74791;SDS011;63319;46.046;17.802;2024-03-23T01:18:53;35.35;;;19.98;;
74791;SDS011;63319;46.046;17.802;2024-03-23T01:21:55;32.13;;;19.35;;
74791;SDS011;63319;46.046;17.802;2024-03-23T01:24:56;29.00;;;16.80;;
74791;SDS011;63319;46.046;17.802;2024-03-23T01:27:58;29.77;;;18.33;;
74791;SDS011;63319;46.046;17.802;2024-03-23T01:31:00;30.43;;;17.67;;
74791;SDS011;63319;46.046;17.802;2024-03-23T01:34:02;32.28;;;17.98;;
74791;SDS011;63319;46.046;17.802;2024-03-23T01:37:04;27.50;;;17.13;;
74791;SDS011;63319;46.046;17.802;2024-03-23T01:40:06;33.20;;;18.27;;
74791;SDS011;63319;46.046;17.802;2024-03-23T01:43:09;30.40;;;17.17;;
74791;SDS011;63319;46.046;17.802;2024-03-23T01:46:11;30.70;;;17.65;;
74791;SDS011;63319;46.046;17.802;2024-03-23T01:49:13;33.53;;;19.27;;
74791;SDS011;63319;46.046;17.802;2024-03-23T01:52:15;34.13;;;17.95;;
74791;SDS011;63319;46.046;17.802;2024-03-23T01:55:17;33.53;;;18.02;;
74791;SDS011;63319;46.046;17.802;2024-03-23T01:58:19;27.42;;;16.60;;
74791;SDS011;63319;46.046;17.802;2024-03-23T02:01:21;29.63;;;17.60;;
74791;SDS011;63319;46.046;17.802;2024-03-23T02:04:22;35.95;;;16.90;;
74791;SDS011;63319;46.046;17.802;2024-03-23T02:07:24;33.75;;;19.40;;
74791;SDS011;63319;46.046;17.802;2024-03-23T02:10:26;29.20;;;16.23;;
74791;SDS011;63319;46.046;17.802;2024-03-23T02:13:28;31.83;;;17.90;;
74791;SDS011;63319;46.046;17.802;2024-03-23T02:16:30;32.63;;;17.77;;
74791;SDS011;63319;46.046;17.802;2024-03-23T02:19:32;28.75;;;17.02;;
74791;SDS011;63319;46.046;17.802;2024-03-23T02:22:37;29.10;;;16.83;;
74791;SDS011;63319;46.046;17.802;2024-03-23T02:25:40;27.95;;;17.45;;
74791;SDS011;63319;46.046;17.802;2024-03-23T02:28:42;35.45;;;17.17;;
74791;SDS011;63319;46.046;17.802;2024-03-23T02:31:43;31.00;;;16.93;;
74791;SDS011;63319;46.046;17.802;2024-03-23T02:34:45;26.77;;;16.27;;
74791;SDS011;63319;46.046;17.802;2024-03-23T02:37:47;29.98;;;16.80;;
74791;SDS011;63319;46.046;17.802;2024-03-23T02:40:52;34.37;;;18.03;;
74791;SDS011;63319;46.046;17.802;2024-03-23T02:43:53;31.77;;;17.70;;
74791;SDS011;63319;46.046;17.802;2024-03-23T02:46:56;29.25;;;16.73;;
74791;SDS011;63319;46.046;17.802;2024-03-23T02:49:57;30.52;;;18.45;;
74791;SDS011;63319;46.046;17.802;2024-03-23T02:52:59;30.67;;;18.05;;
74791;SDS011;63319;46.046;17.802;2024-03-23T02:56:01;29.55;;;17.42;;
74791;SDS011;63319;46.046;17.802;2024-03-23T02:59:03;33.65;;;17.58;;
74791;SDS011;63319;46.046;17.802;2024-03-23T03:02:05;31.17;;;17.90;;
74791;SDS011;63319;46.046;17.802;2024-03-23T03:05:08;36.03;;;19.02;;
74791;SDS011;63319;46.046;17.802;2024-03-23T03:08:10;29.58;;;17.35;;
74791;SDS011;63319;46.046;17.802;2024-03-23T03:11:12;36.70;;;19.50;;
74791;SDS011;63319;46.046;17.802;2024-03-23T03:14:14;31.40;;;18.52;;
74791;SDS011;63319;46.046;17.802;2024-03-23T03:17:16;30.52;;;17.77;;
74791;SDS011;63319;46.046;17.802;2024-03-23T03:20:18;32.97;;;19.85;;
74791;SDS011;63319;46.046;17.802;2024-03-23T03:23:20;31.55;;;17.23;;
74791;SDS011;63319;46.046;17.802;2024-03-23T03:26:22;29.65;;;17.20;;
74791;SDS011;63319;46.046;17.802;2024-03-23T03:29:24;30.70;;;18.58;;
74791;SDS011;63319;46.046;17.802;2024-03-23T03:32:26;32.23;;;17.07;;
74791;SDS011;63319;46.046;17.802;2024-03-23T03:35:28;31.35;;;16.40;;
74791;SDS011;63319;46.046;17.802;2024-03-23T03:38:31;30.08;;;16.05;;
74791;SDS011;63319;46.046;17.802;2024-03-23T03:41:33;34.13;;;17.63;;
74791;SDS011;63319;46.046;17.802;2024-03-23T03:44:35;29.88;;;16.90;;
74791;SDS011;63319;46.046;17.802;2024-03-23T03:47:38;29.92;;;16.92;;
74791;SDS011;63319;46.046;17.802;2024-03-23T03:50:39;30.83;;;17.85;;
74791;SDS011;63319;46.046;17.802;2024-03-23T03:53:41;36.13;;;18.45;;
74791;SDS011;63319;46.046;17.802;2024-03-23T03:56:43;34.83;;;20.77;;
74791;SDS011;63319;46.046;17.802;2024-03-23T03:59:45;35.10;;;20.00;;
74791;SDS011;63319;46.046;17.802;2024-03-23T04:02:47;45.47;;;24.37;;
74791;SDS011;63319;46.046;17.802;2024-03-23T04:05:52;42.72;;;23.92;;
74791;SDS011;63319;46.046;17.802;2024-03-23T04:08:55;38.15;;;21.33;;
74791;SDS011;63319;46.046;17.802;2024-03-23T04:11:57;35.47;;;20.27;;
74791;SDS011;63319;46.046;17.802;2024-03-23T04:14:59;29.42;;;17.92;;
74791;SDS011;63319;46.046;17.802;2024-03-23T04:18:01;32.30;;;19.52;;
74791;SDS011;63319;46.046;17.802;2024-03-23T04:21:03;35.70;;;19.42;;
74791;SDS011;63319;46.046;17.802;2024-03-23T04:24:05;34.97;;;19.52;;
74791;SDS011;63319;46.046;17.802;2024-03-23T04:27:07;32.40;;;19.83;;
74791;SDS011;63319;46.046;17.802;2024-03-23T04:30:09;29.58;;;17.33;;
74791;SDS011;63319;46.046;17.802;2024-03-23T04:33:13;35.23;;;17.87;;
74791;SDS011;63319;46.046;17.802;2024-03-23T04:36:15;31.83;;;15.77;;
74791;SDS011;63319;46.046;17.802;2024-03-23T04:39:16;32.33;;;16.27;;
74791;SDS011;63319;46.046;17.802;2024-03-23T04:42:18;30.60;;;16.90;;
74791;SDS011;63319;46.046;17.802;2024-03-23T04:45:20;30.98;;;16.77;;
74791;SDS011;63319;46.046;17.802;2024-03-23T04:48:24;33.65;;;17.20;;
74791;SDS011;63319;46.046;17.802;2024-03-23T04:51:26;33.22;;;18.33;;
74791;SDS011;63319;46.046;17.802;2024-03-23T04:54:28;31.48;;;17.55;;
74791;SDS011;63319;46.046;17.802;2024-03-23T04:57:30;31.98;;;18.08;;
74791;SDS011;63319;46.046;17.802;2024-03-23T05:00:32;30.85;;;17.98;;
74791;SDS011;63319;46.046;17.802;2024-03-23T05:03:34;28.67;;;17.90;;
74791;SDS011;63319;46.046;17.802;2024-03-23T05:06:36;28.30;;;16.90;;
74791;SDS011;63319;46.046;17.802;2024-03-23T05:09:37;32.38;;;18.90;;
74791;SDS011;63319;46.046;17.802;2024-03-23T05:12:39;36.20;;;18.27;;
74791;SDS011;63319;46.046;17.802;2024-03-23T05:15:41;26.25;;;16.55;;
74791;SDS011;63319;46.046;17.802;2024-03-23T05:18:43;28.13;;;17.50;;
74791;SDS011;63319;46.046;17.802;2024-03-23T05:21:45;57.13;;;29.33;;
74791;SDS011;63319;46.046;17.802;2024-03-23T05:24:47;55.92;;;31.40;;
74791;SDS011;63319;46.046;17.802;2024-03-23T05:27:49;60.42;;;30.30;;
74791;SDS011;63319;46.046;17.802;2024-03-23T05:30:52;61.70;;;30.63;;
74791;SDS011;63319;46.046;17.802;2024-03-23T05:33:55;48.30;;;26.70;;
74791;SDS011;63319;46.046;17.802;2024-03-23T05:36:56;41.33;;;23.15;;
74791;SDS011;63319;46.046;17.802;2024-03-23T05:39:58;35.28;;;19.60;;
74791;SDS011;63319;46.046;17.802;2024-03-23T05:43:00;32.27;;;20.30;;
74791;SDS011;63319;46.046;17.802;2024-03-23T05:46:02;29.48;;;19.00;;
74791;SDS011;63319;46.046;17.802;2024-03-23T05:49:05;26.33;;;15.70;;
74791;SDS011;63319;46.046;17.802;2024-03-23T05:52:07;25.75;;;14.27;;
74791;SDS011;63319;46.046;17.802;2024-03-23T05:55:11;22.88;;;13.68;;
74791;SDS011;63319;46.046;17.802;2024-03-23T05:58:14;23.20;;;12.63;;
74791;SDS011;63319;46.046;17.802;2024-03-23T06:01:17;24.23;;;14.80;;
74791;SDS011;63319;46.046;17.802;2024-03-23T06:04:19;21.87;;;12.87;;
74791;SDS011;63319;46.046;17.802;2024-03-23T06:07:21;19.45;;;12.77;;
74791;SDS011;63319;46.046;17.802;2024-03-23T06:10:23;19.48;;;12.02;;
74791;SDS011;63319;46.046;17.802;2024-03-23T06:13:25;17.93;;;12.13;;
74791;SDS011;63319;46.046;17.802;2024-03-23T06:16:31;20.83;;;12.73;;
74791;SDS011;63319;46.046;17.802;2024-03-23T06:19:33;24.60;;;13.93;;
74791;SDS011;63319;46.046;17.802;2024-03-23T06:22:35;24.00;;;13.00;;
74791;SDS011;63319;46.046;17.802;2024-03-23T06:25:37;19.93;;;12.47;;
74791;SDS011;63319;46.046;17.802;2024-03-23T06:28:39;21.20;;;13.07;;
74791;SDS011;63319;46.046;17.802;2024-03-23T06:31:41;19.77;;;13.07;;
74791;SDS011;63319;46.046;17.802;2024-03-23T06:34:43;19.48;;;12.77;;
74791;SDS011;63319;46.046;17.802;2024-03-23T06:37:46;23.33;;;13.23;;
74791;SDS011;63319;46.046;17.802;2024-03-23T06:40:48;23.23;;;12.85;;
74791;SDS011;63319;46.046;17.802;2024-03-23T06:43:52;21.25;;;12.43;;
74791;SDS011;63319;46.046;17.802;2024-03-23T06:46:54;22.88;;;12.88;;
74791;SDS011;63319;46.046;17.802;2024-03-23T06:49:56;21.70;;;13.17;;
74791;SDS011;63319;46.046;17.802;2024-03-23T06:52:57;20.20;;;12.80;;
74791;SDS011;63319;46.046;17.802;2024-03-23T06:55:59;20.40;;;12.80;;
74791;SDS011;63319;46.046;17.802;2024-03-23T06:59:02;23.20;;;13.32;;
74791;SDS011;63319;46.046;17.802;2024-03-23T07:02:05;21.10;;;12.75;;
74791;SDS011;63319;46.046;17.802;2024-03-23T07:05:10;19.60;;;13.23;;
74791;SDS011;63319;46.046;17.802;2024-03-23T07:08:12;21.97;;;13.13;;
74791;SDS011;63319;46.046;17.802;2024-03-23T07:11:20;19.27;;;13.73;;
74791;SDS011;63319;46.046;17.802;2024-03-23T07:14:23;20.08;;;13.20;;
74791;SDS011;63319;46.046;17.802;2024-03-23T07:17:25;22.08;;;13.73;;
74791;SDS011;63319;46.046;17.802;2024-03-23T07:20:27;22.77;;;12.67;;
74791;SDS011;63319;46.046;17.802;2024-03-23T07:23:31;18.38;;;13.15;;
74791;SDS011;63319;46.046;17.802;2024-03-23T07:26:33;23.33;;;13.50;;
74791;SDS011;63319;46.046;17.802;2024-03-23T07:29:35;17.25;;;12.88;;
74791;SDS011;63319;46.046;17.802;2024-03-23T07:32:37;19.17;;;12.85;;
74791;SDS011;63319;46.046;17.802;2024-03-23T07:35:39;15.27;;;11.40;;
74791;SDS011;63319;46.046;17.802;2024-03-23T07:38:41;15.77;;;11.30;;
74791;SDS011;63319;46.046;17.802;2024-03-23T07:41:46;14.10;;;10.73;;
74791;SDS011;63319;46.046;17.802;2024-03-23T07:44:48;13.98;;;11.02;;
74791;SDS011;63319;46.046;17.802;2024-03-23T07:47:51;14.38;;;10.18;;
74791;SDS011;63319;46.046;17.802;2024-03-23T07:51:02;15.57;;;10.43;;
74791;SDS011;63319;46.046;17.802;2024-03-23T07:54:05;16.65;;;10.85;;
74791;SDS011;63319;46.046;17.802;2024-03-23T07:57:08;11.90;;;9.18;;
74791;SDS011;63319;46.046;17.802;2024-03-23T08:00:10;13.07;;;9.10;;
74791;SDS011;63319;46.046;17.802;2024-03-23T08:03:14;13.30;;;9.15;;
74791;SDS011;63319;46.046;17.802;2024-03-23T08:06:16;14.10;;;9.30;;
74791;SDS011;63319;46.046;17.802;2024-03-23T08:09:20;12.07;;;8.63;;
74791;SDS011;63319;46.046;17.802;2024-03-23T08:12:22;12.20;;;8.63;;
74791;SDS011;63319;46.046;17.802;2024-03-23T08:15:24;12.82;;;7.95;;
74791;SDS011;63319;46.046;17.802;2024-03-23T08:18:26;12.25;;;8.45;;
74791;SDS011;63319;46.046;17.802;2024-03-23T08:21:28;15.23;;;7.90;;
74791;SDS011;63319;46.046;17.802;2024-03-23T08:24:30;11.10;;;8.13;;
74791;SDS011;63319;46.046;17.802;2024-03-23T08:27:32;10.30;;;7.18;;
74791;SDS011;63319;46.046;17.802;2024-03-23T08:30:34;9.75;;;6.40;;
74791;SDS011;63319;46.046;17.802;2024-03-23T08:33:37;14.20;;;7.15;;
74791;SDS011;63319;46.046;17.802;2024-03-23T08:36:39;10.73;;;6.23;;
74791;SDS011;63319;46.046;17.802;2024-03-23T08:39:43;10.25;;;6.18;;
74791;SDS011;63319;46.046;17.802;2024-03-23T08:42:45;10.15;;;5.68;;
74791;SDS011;63319;46.046;17.802;2024-03-23T08:45:46;8.48;;;5.35;;
74791;SDS011;63319;46.046;17.802;2024-03-23T08:48:48;8.63;;;5.68;;
74791;SDS011;63319;46.046;17.802;2024-03-23T08:51:50;7.80;;;5.30;;
74791;SDS011;63319;46.046;17.802;2024-03-23T08:54:53;8.85;;;4.95;;
74791;SDS011;63319;46.046;17.802;2024-03-23T08:57:54;8.35;;;5.20;;
74791;SDS011;63319;46.046;17.802;2024-03-23T09:01:02;7.50;;;4.20;;
74791;SDS011;63319;46.046;17.802;2024-03-23T09:04:10;7.03;;;4.35;;
74791;SDS011;63319;46.046;17.802;2024-03-23T09:07:12;7.57;;;3.97;;
74791;SDS011;63319;46.046;17.802;2024-03-23T09:10:14;7.28;;;4.15;;
74791;SDS011;63319;46.046;17.802;2024-03-23T09:13:15;8.32;;;4.40;;
74791;SDS011;63319;46.046;17.802;2024-03-23T09:16:17;9.70;;;3.50;;
74791;SDS011;63319;46.046;17.802;2024-03-23T09:19:19;9.85;;;3.53;;
74791;SDS011;63319;46.046;17.802;2024-03-23T09:22:21;7.93;;;2.93;;
74791;SDS011;63319;46.046;17.802;2024-03-23T09:25:23;7.38;;;2.78;;
74791;SDS011;63319;46.046;17.802;2024-03-23T09:28:25;6.38;;;2.95;;
74791;SDS011;63319;46.046;17.802;2024-03-23T09:31:27;5.90;;;2.63;;
74791;SDS011;63319;46.046;17.802;2024-03-23T09:34:29;6.95;;;2.72;;
74791;SDS011;63319;46.046;17.802;2024-03-23T09:37:31;7.93;;;2.70;;
74791;SDS011;63319;46.046;17.802;2024-03-23T09:40:33;5.28;;;2.78;;
74791;SDS011;63319;46.046;17.802;2024-03-23T09:43:35;5.45;;;2.72;;
74791;SDS011;63319;46.046;17.802;2024-03-23T09:46:37;4.72;;;2.58;;
74791;SDS011;63319;46.046;17.802;2024-03-23T09:49:40;6.28;;;1.77;;
74791;SDS011;63319;46.046;17.802;2024-03-23T09:52:42;3.87;;;2.10;;
74791;SDS011;63319;46.046;17.802;2024-03-23T09:55:44;6.43;;;1.98;;
74791;SDS011;63319;46.046;17.802;2024-03-23T09:58:46;6.07;;;2.00;;
74791;SDS011;63319;46.046;17.802;2024-03-23T10:01:48;5.97;;;1.55;;
74791;SDS011;63319;46.046;17.802;2024-03-23T10:04:51;5.90;;;1.88;;
74791;SDS011;63319;46.046;17.802;2024-03-23T10:07:53;8.70;;;1.90;;
74791;SDS011;63319;46.046;17.802;2024-03-23T10:10:55;9.18;;;2.08;;
74791;SDS011;63319;46.046;17.802;2024-03-23T10:13:57;11.07;;;2.30;;
74791;SDS011;63319;46.046;17.802;2024-03-23T10:17:19;5.43;;;2.00;;
74791;SDS011;63319;46.046;17.802;2024-03-23T10:20:22;7.43;;;2.17;;
74791;SDS011;63319;46.046;17.802;2024-03-23T10:23:24;4.97;;;2.07;;
74791;SDS011;63319;46.046;17.802;2024-03-23T10:26:26;4.80;;;1.83;;
74791;SDS011;63319;46.046;17.802;2024-03-23T10:29:29;5.75;;;1.75;;
74791;SDS011;63319;46.046;17.802;2024-03-23T10:32:31;7.50;;;2.10;;
74791;SDS011;63319;46.046;17.802;2024-03-23T10:35:32;7.88;;;2.40;;
74791;SDS011;63319;46.046;17.802;2024-03-23T10:38:34;5.63;;;2.33;;
74791;SDS011;63319;46.046;17.802;2024-03-23T10:41:37;6.00;;;1.85;;
74791;SDS011;63319;46.046;17.802;2024-03-23T10:44:41;6.25;;;2.00;;
74791;SDS011;63319;46.046;17.802;2024-03-23T10:47:43;5.38;;;2.33;;
74791;SDS011;63319;46.046;17.802;2024-03-23T10:50:45;5.75;;;2.30;;
74791;SDS011;63319;46.046;17.802;2024-03-23T10:53:47;7.33;;;2.30;;
74791;SDS011;63319;46.046;17.802;2024-03-23T10:56:49;6.88;;;2.50;;
74791;SDS011;63319;46.046;17.802;2024-03-23T10:59:55;5.10;;;2.67;;
74791;SDS011;63319;46.046;17.802;2024-03-23T11:02:57;4.68;;;2.00;;
74791;SDS011;63319;46.046;17.802;2024-03-23T11:06:00;7.47;;;2.45;;
74791;SDS011;63319;46.046;17.802;2024-03-23T11:09:02;6.00;;;1.80;;
74791;SDS011;63319;46.046;17.802;2024-03-23T11:15:36;7.80;;;2.25;;
74791;SDS011;63319;46.046;17.802;2024-03-23T11:18:38;5.30;;;2.42;;
74791;SDS011;63319;46.046;17.802;2024-03-23T11:21:53;5.90;;;1.77;;
74791;SDS011;63319;46.046;17.802;2024-03-23T11:24:55;4.20;;;1.70;;
74791;SDS011;63319;46.046;17.802;2024-03-23T11:27:58;7.68;;;2.17;;
74791;SDS011;63319;46.046;17.802;2024-03-23T11:31:12;5.13;;;2.75;;
74791;SDS011;63319;46.046;17.802;2024-03-23T11:34:16;4.63;;;2.05;;
74791;SDS011;63319;46.046;17.802;2024-03-23T11:37:19;4.43;;;2.10;;
74791;SDS011;63319;46.046;17.802;2024-03-23T11:40:20;4.70;;;1.83;;
74791;SDS011;63319;46.046;17.802;2024-03-23T11:43:22;4.00;;;1.92;;
74791;SDS011;63319;46.046;17.802;2024-03-23T11:46:25;4.28;;;2.05;;
74791;SDS011;63319;46.046;17.802;2024-03-23T11:49:29;5.88;;;2.15;;
74791;SDS011;63319;46.046;17.802;2024-03-23T11:52:32;7.10;;;2.47;;
74791;SDS011;63319;46.046;17.802;2024-03-23T11:58:49;4.85;;;2.05;;
74791;SDS011;63319;46.046;17.802;2024-03-23T12:01:53;4.70;;;2.50;;
74791;SDS011;63319;46.046;17.802;2024-03-23T12:04:55;3.92;;;1.85;;
74791;SDS011;63319;46.046;17.802;2024-03-23T12:11:18;4.77;;;2.10;;
74791;SDS011;63319;46.046;17.802;2024-03-23T12:14:20;5.60;;;2.17;;
74791;SDS011;63319;46.046;17.802;2024-03-23T12:17:22;7.25;;;2.08;;
74791;SDS011;63319;46.046;17.802;2024-03-23T12:20:24;6.15;;;2.38;;
74791;SDS011;63319;46.046;17.802;2024-03-23T12:23:26;4.88;;;2.70;;
74791;SDS011;63319;46.046;17.802;2024-03-23T12:26:28;6.77;;;2.00;;
74791;SDS011;63319;46.046;17.802;2024-03-23T12:29:30;5.93;;;2.35;;
74791;SDS011;63319;46.046;17.802;2024-03-23T12:32:35;5.65;;;2.00;;
74791;SDS011;63319;46.046;17.802;2024-03-23T12:35:37;5.80;;;2.17;;
74791;SDS011;63319;46.046;17.802;2024-03-23T12:38:39;6.10;;;2.20;;
74791;SDS011;63319;46.046;17.802;2024-03-23T12:41:41;7.63;;;2.57;;
74791;SDS011;63319;46.046;17.802;2024-03-23T12:44:43;4.47;;;2.20;;
74791;SDS011;63319;46.046;17.802;2024-03-23T12:47:45;4.57;;;2.25;;
74791;SDS011;63319;46.046;17.802;2024-03-23T12:50:47;6.13;;;2.53;;
74791;SDS011;63319;46.046;17.802;2024-03-23T12:53:49;6.20;;;2.60;;
74791;SDS011;63319;46.046;17.802;2024-03-23T12:56:51;5.80;;;2.30;;
74791;SDS011;63319;46.046;17.802;2024-03-23T12:59:53;5.57;;;2.33;;
74791;SDS011;63319;46.046;17.802;2024-03-23T13:02:55;4.88;;;2.45;;
74791;SDS011;63319;46.046;17.802;2024-03-23T13:05:56;5.93;;;2.40;;
74791;SDS011;63319;46.046;17.802;2024-03-23T13:08:58;5.95;;;2.90;;
74791;SDS011;63319;46.046;17.802;2024-03-23T13:12:00;6.33;;;2.10;;
74791;SDS011;63319;46.046;17.802;2024-03-23T13:15:02;5.00;;;2.45;;
74791;SDS011;63319;46.046;17.802;2024-03-23T13:18:04;5.85;;;2.42;;
74791;SDS011;63319;46.046;17.802;2024-03-23T13:21:06;4.20;;;1.88;;
74791;SDS011;63319;46.046;17.802;2024-03-23T13:24:07;9.93;;;2.72;;
74791;SDS011;63319;46.046;17.802;2024-03-23T13:27:09;7.37;;;2.23;;
74791;SDS011;63319;46.046;17.802;2024-03-23T13:30:12;5.55;;;2.33;;
74791;SDS011;63319;46.046;17.802;2024-03-23T13:33:14;6.82;;;1.95;;
74791;SDS011;63319;46.046;17.802;2024-03-23T13:36:16;5.03;;;2.05;;
74791;SDS011;63319;46.046;17.802;2024-03-23T13:39:18;5.32;;;1.85;;
74791;SDS011;63319;46.046;17.802;2024-03-23T13:42:20;5.20;;;1.90;;
74791;SDS011;63319;46.046;17.802;2024-03-23T13:45:22;6.30;;;1.88;;
74791;SDS011;63319;46.046;17.802;2024-03-23T13:48:24;4.15;;;2.03;;
74791;SDS011;63319;46.046;17.802;2024-03-23T13:51:27;5.10;;;2.00;;
74791;SDS011;63319;46.046;17.802;2024-03-23T13:54:29;3.35;;;1.70;;
74791;SDS011;63319;46.046;17.802;2024-03-23T13:57:31;3.43;;;1.57;;
74791;SDS011;63319;46.046;17.802;2024-03-23T14:00:33;5.85;;;2.05;;
74791;SDS011;63319;46.046;17.802;2024-03-23T14:03:35;5.68;;;2.20;;
74791;SDS011;63319;46.046;17.802;2024-03-23T14:06:37;4.82;;;2.00;;
74791;SDS011;63319;46.046;17.802;2024-03-23T14:09:39;4.38;;;2.15;;
74791;SDS011;63319;46.046;17.802;2024-03-23T14:12:41;5.00;;;1.80;;
74791;SDS011;63319;46.046;17.802;2024-03-23T14:15:43;5.05;;;1.73;;
74791;SDS011;63319;46.046;17.802;2024-03-23T14:18:48;4.57;;;2.03;;
74791;SDS011;63319;46.046;17.802;2024-03-23T14:21:50;4.72;;;2.03;;
74791;SDS011;63319;46.046;17.802;2024-03-23T14:24:52;4.43;;;1.90;;
74791;SDS011;63319;46.046;17.802;2024-03-23T14:27:54;5.63;;;1.90;;
74791;SDS011;63319;46.046;17.802;2024-03-23T14:30:56;5.22;;;1.63;;
74791;SDS011;63319;46.046;17.802;2024-03-23T14:33:59;6.38;;;1.75;;
74791;SDS011;63319;46.046;17.802;2024-03-23T14:37:01;4.47;;;1.60;;
74791;SDS011;63319;46.046;17.802;2024-03-23T14:40:03;4.28;;;1.95;;
74791;SDS011;63319;46.046;17.802;2024-03-23T14:43:06;6.97;;;2.13;;
74791;SDS011;63319;46.046;17.802;2024-03-23T14:46:14;7.03;;;1.98;;
74791;SDS011;63319;46.046;17.802;2024-03-23T14:49:17;4.82;;;2.13;;
74791;SDS011;63319;46.046;17.802;2024-03-23T14:52:19;4.35;;;1.80;;
74791;SDS011;63319;46.046;17.802;2024-03-23T14:55:21;5.95;;;1.83;;
74791;SDS011;63319;46.046;17.802;2024-03-23T14:58:23;3.97;;;1.60;;
74791;SDS011;63319;46.046;17.802;2024-03-23T15:01:26;5.70;;;1.83;;
74791;SDS011;63319;46.046;17.802;2024-03-23T15:04:28;3.90;;;1.80;;
74791;SDS011;63319;46.046;17.802;2024-03-23T15:07:30;6.93;;;1.80;;
74791;SDS011;63319;46.046;17.802;2024-03-23T15:10:33;8.82;;;2.85;;
74791;SDS011;63319;46.046;17.802;2024-03-23T15:13:35;8.30;;;3.20;;
74791;SDS011;63319;46.046;17.802;2024-03-23T15:16:38;10.02;;;2.80;;
74791;SDS011;63319;46.046;17.802;2024-03-23T15:19:40;5.50;;;2.25;;
74791;SDS011;63319;46.046;17.802;2024-03-23T15:22:43;4.38;;;1.98;;
74791;SDS011;63319;46.046;17.802;2024-03-23T15:25:45;6.35;;;2.92;;
74791;SDS011;63319;46.046;17.802;2024-03-23T15:28:50;30.60;;;12.87;;
74791;SDS011;63319;46.046;17.802;2024-03-23T15:31:57;30.00;;;11.55;;
74791;SDS011;63319;46.046;17.802;2024-03-23T15:34:59;11.75;;;3.75;;
74791;SDS011;63319;46.046;17.802;2024-03-23T15:38:01;4.85;;;1.90;;
74791;SDS011;63319;46.046;17.802;2024-03-23T15:41:03;5.18;;;1.92;;
74791;SDS011;63319;46.046;17.802;2024-03-23T15:44:05;29.97;;;13.10;;
74791;SDS011;63319;46.046;17.802;2024-03-23T15:47:07;30.80;;;13.45;;
74791;SDS011;63319;46.046;17.802;2024-03-23T15:50:09;15.57;;;7.00;;
74791;SDS011;63319;46.046;17.802;2024-03-23T15:53:11;14.00;;;6.63;;
74791;SDS011;63319;46.046;17.802;2024-03-23T15:56:13;13.48;;;5.38;;
74791;SDS011;63319;46.046;17.802;2024-03-23T15:59:15;8.53;;;4.13;;
74791;SDS011;63319;46.046;17.802;2024-03-23T16:02:16;8.65;;;4.80;;
74791;SDS011;63319;46.046;17.802;2024-03-23T16:05:18;9.05;;;3.95;;
74791;SDS011;63319;46.046;17.802;2024-03-23T16:08:20;5.75;;;3.03;;
74791;SDS011;63319;46.046;17.802;2024-03-23T16:11:22;8.18;;;3.38;;
74791;SDS011;63319;46.046;17.802;2024-03-23T16:14:24;10.27;;;3.83;;
74791;SDS011;63319;46.046;17.802;2024-03-23T16:17:25;9.63;;;4.32;;
74791;SDS011;63319;46.046;17.802;2024-03-23T16:20:27;11.15;;;3.90;;
74791;SDS011;63319;46.046;17.802;2024-03-23T16:23:29;12.32;;;3.75;;
74791;SDS011;63319;46.046;17.802;2024-03-23T16:26:31;10.30;;;4.38;;
74791;SDS011;63319;46.046;17.802;2024-03-23T16:29:33;9.43;;;4.57;;
74791;SDS011;63319;46.046;17.802;2024-03-23T16:32:35;12.68;;;5.30;;
74791;SDS011;63319;46.046;17.802;2024-03-23T16:35:38;11.45;;;5.90;;
74791;SDS011;63319;46.046;17.802;2024-03-23T16:38:41;11.73;;;5.32;;
74791;SDS011;63319;46.046;17.802;2024-03-23T16:41:43;12.20;;;5.47;;
74791;SDS011;63319;46.046;17.802;2024-03-23T16:44:45;13.03;;;6.83;;
74791;SDS011;63319;46.046;17.802;2024-03-23T16:47:47;19.08;;;8.75;;
74791;SDS011;63319;46.046;17.802;2024-03-23T16:50:49;14.80;;;8.43;;
74791;SDS011;63319;46.046;17.802;2024-03-23T16:53:51;12.80;;;6.32;;
74791;SDS011;63319;46.046;17.802;2024-03-23T16:56:53;14.23;;;5.60;;
74791;SDS011;63319;46.046;17.802;2024-03-23T16:59:55;11.10;;;5.13;;
74791;SDS011;63319;46.046;17.802;2024-03-23T17:02:56;12.50;;;6.20;;
74791;SDS011;63319;46.046;17.802;2024-03-23T17:05:58;10.98;;;6.32;;
74791;SDS011;63319;46.046;17.802;2024-03-23T17:09:00;10.73;;;6.78;;
74791;SDS011;63319;46.046;17.802;2024-03-23T17:12:04;12.37;;;5.20;;
74791;SDS011;63319;46.046;17.802;2024-03-23T17:15:07;16.52;;;5.13;;
74791;SDS011;63319;46.046;17.802;2024-03-23T17:18:10;10.50;;;5.40;;
74791;SDS011;63319;46.046;17.802;2024-03-23T17:21:12;16.08;;;6.25;;
74791;SDS011;63319;46.046;17.802;2024-03-23T17:24:14;15.17;;;6.53;;
74791;SDS011;63319;46.046;17.802;2024-03-23T17:27:16;28.27;;;10.95;;
74791;SDS011;63319;46.046;17.802;2024-03-23T17:30:18;21.17;;;9.63;;
74791;SDS011;63319;46.046;17.802;2024-03-23T17:33:19;18.10;;;7.70;;
74791;SDS011;63319;46.046;17.802;2024-03-23T17:36:23;16.43;;;6.30;;
74791;SDS011;63319;46.046;17.802;2024-03-23T17:39:30;9.30;;;5.10;;
74791;SDS011;63319;46.046;17.802;2024-03-23T17:42:36;15.15;;;6.95;;
74791;SDS011;63319;46.046;17.802;2024-03-23T17:45:39;12.45;;;6.38;;
74791;SDS011;63319;46.046;17.802;2024-03-23T17:48:41;10.13;;;5.20;;
74791;SDS011;63319;46.046;17.802;2024-03-23T17:51:44;10.65;;;4.97;;
74791;SDS011;63319;46.046;17.802;2024-03-23T17:54:46;8.35;;;4.35;;
74791;SDS011;63319;46.046;17.802;2024-03-23T17:57:50;7.27;;;3.43;;
74791;SDS011;63319;46.046;17.802;2024-03-23T18:00:52;7.73;;;3.77;;
74791;SDS011;63319;46.046;17.802;2024-03-23T18:03:54;16.55;;;4.63;;
74791;SDS011;63319;46.046;17.802;2024-03-23T18:06:57;10.60;;;4.60;;
74791;SDS011;63319;46.046;17.802;2024-03-23T18:09:58;11.07;;;4.53;;
74791;SDS011;63319;46.046;17.802;2024-03-23T18:13:00;13.10;;;6.23;;
74791;SDS011;63319;46.046;17.802;2024-03-23T18:16:02;10.90;;;6.28;;
74791;SDS011;63319;46.046;17.802;2024-03-23T18:19:04;11.40;;;5.10;;
74791;SDS011;63319;46.046;17.802;2024-03-23T18:22:06;9.33;;;4.27;;
74791;SDS011;63319;46.046;17.802;2024-03-23T18:25:08;11.83;;;4.30;;
74791;SDS011;63319;46.046;17.802;2024-03-23T18:28:10;7.53;;;3.50;;
74791;SDS011;63319;46.046;17.802;2024-03-23T18:31:12;12.70;;;3.70;;
74791;SDS011;63319;46.046;17.802;2024-03-23T18:34:14;7.53;;;3.28;;
74791;SDS011;63319;46.046;17.802;2024-03-23T18:37:15;8.80;;;3.70;;
74791;SDS011;63319;46.046;17.802;2024-03-23T18:40:17;8.32;;;3.80;;
74791;SDS011;63319;46.046;17.802;2024-03-23T18:43:19;13.32;;;4.50;;
74791;SDS011;63319;46.046;17.802;2024-03-23T18:46:21;14.55;;;4.95;;
74791;SDS011;63319;46.046;17.802;2024-03-23T18:49:24;20.77;;;3.10;;